sensor_id;sensor_type;location;lat;lon;timestamp;temperature;humidity
790;DHT22;378;48.844;9.156;2024-03-02T00:00:32;7.00;99.90
790;DHT22;378;48.844;9.156;2024-03-02T00:02:59;7.00;99.90
790;DHT22;378;48.844;9.156;2024-03-02T00:05:26;7.00;99.90
790;DHT22;378;48.844;9.156;2024-03-02T00:07:53;7.00;99.90
790;DHT22;378;48.844;9.156;2024-03-02T00:10:23;7.00;99.90
790;DHT22;378;48.844;9.156;2024-03-02T00:12:55;6.90;99.90
790;DHT22;378;48.844;9.156;2024-03-02T00:15:40;7.00;99.90
790;DHT22;378;48.844;9.156;2024-03-02T00:18:11;6.90;99.90
790;DHT22;378;48.844;9.156;2024-03-02T00:20:38;7.00;99.90
790;DHT22;378;48.844;9.156;2024-03-02T00:23:07;7.00;99.90
790;DHT22;378;48.844;9.156;2024-03-02T00:25:39;7.00;99.90
790;DHT22;378;48.844;9.156;2024-03-02T00:28:13;7.00;99.90
790;DHT22;378;48.844;9.156;2024-03-02T00:30:58;7.00;99.90
790;DHT22;378;48.844;9.156;2024-03-02T00:33:27;7.00;99.90
790;DHT22;378;48.844;9.156;2024-03-02T00:35:55;7.00;99.90
790;DHT22;378;48.844;9.156;2024-03-02T00:38:22;7.10;99.90
790;DHT22;378;48.844;9.156;2024-03-02T00:40:49;7.00;99.90
790;DHT22;378;48.844;9.156;2024-03-02T00:43:44;7.10;99.90
790;DHT22;378;48.844;9.156;2024-03-02T00:46:15;7.10;99.90
790;DHT22;378;48.844;9.156;2024-03-02T00:48:51;7.10;99.90
790;DHT22;378;48.844;9.156;2024-03-02T00:51:19;7.10;99.90
790;DHT22;378;48.844;9.156;2024-03-02T00:53:47;7.10;99.90
790;DHT22;378;48.844;9.156;2024-03-02T00:56:14;7.00;99.90
790;DHT22;378;48.844;9.156;2024-03-02T00:58:41;7.00;99.90
790;DHT22;378;48.844;9.156;2024-03-02T01:01:07;7.00;99.90
790;DHT22;378;48.844;9.156;2024-03-02T01:03:36;7.00;99.90
790;DHT22;378;48.844;9.156;2024-03-02T01:06:04;7.00;99.90
790;DHT22;378;48.844;9.156;2024-03-02T01:08:33;7.00;99.90
790;DHT22;378;48.844;9.156;2024-03-02T01:11:00;7.00;99.90
790;DHT22;378;48.844;9.156;2024-03-02T01:13:26;7.00;99.90
790;DHT22;378;48.844;9.156;2024-03-02T01:15:53;7.10;99.90
790;DHT22;378;48.844;9.156;2024-03-02T01:18:20;7.00;99.90
790;DHT22;378;48.844;9.156;2024-03-02T01:20:50;7.00;99.90
790;DHT22;378;48.844;9.156;2024-03-02T01:23:18;7.10;99.90
790;DHT22;378;48.844;9.156;2024-03-02T01:25:47;7.00;99.90
790;DHT22;378;48.844;9.156;2024-03-02T01:28:14;6.90;99.90
790;DHT22;378;48.844;9.156;2024-03-02T01:30:41;6.90;99.90
790;DHT22;378;48.844;9.156;2024-03-02T01:33:08;6.90;99.90
790;DHT22;378;48.844;9.156;2024-03-02T01:35:35;6.80;99.90
790;DHT22;378;48.844;9.156;2024-03-02T01:38:04;6.70;99.90
790;DHT22;378;48.844;9.156;2024-03-02T01:40:31;6.70;99.90
790;DHT22;378;48.844;9.156;2024-03-02T01:42:58;6.70;99.90
790;DHT22;378;48.844;9.156;2024-03-02T01:45:25;6.60;99.90
790;DHT22;378;48.844;9.156;2024-03-02T01:47:52;6.60;99.90
790;DHT22;378;48.844;9.156;2024-03-02T01:50:25;6.60;99.90
790;DHT22;378;48.844;9.156;2024-03-02T01:52:52;6.60;99.90
790;DHT22;378;48.844;9.156;2024-03-02T01:55:21;6.60;99.90
790;DHT22;378;48.844;9.156;2024-03-02T01:57:48;6.60;99.90
790;DHT22;378;48.844;9.156;2024-03-02T02:00:16;6.60;99.90
790;DHT22;378;48.844;9.156;2024-03-02T02:02:44;6.60;99.90
790;DHT22;378;48.844;9.156;2024-03-02T02:05:10;6.60;99.90
790;DHT22;378;48.844;9.156;2024-03-02T02:07:38;6.50;99.90
790;DHT22;378;48.844;9.156;2024-03-02T02:10:05;6.50;99.90
790;DHT22;378;48.844;9.156;2024-03-02T02:12:34;6.50;99.90
790;DHT22;378;48.844;9.156;2024-03-02T02:15:01;6.50;99.90
790;DHT22;378;48.844;9.156;2024-03-02T02:17:28;6.40;99.90
790;DHT22;378;48.844;9.156;2024-03-02T02:19:55;6.40;99.90
790;DHT22;378;48.844;9.156;2024-03-02T02:22:23;6.30;99.90
790;DHT22;378;48.844;9.156;2024-03-02T02:24:50;6.40;99.90
790;DHT22;378;48.844;9.156;2024-03-02T02:27:17;6.30;99.90
790;DHT22;378;48.844;9.156;2024-03-02T02:29:44;6.40;99.90
790;DHT22;378;48.844;9.156;2024-03-02T02:32:11;6.40;99.90
790;DHT22;378;48.844;9.156;2024-03-02T02:34:38;6.40;99.90
790;DHT22;378;48.844;9.156;2024-03-02T02:37:05;6.40;99.90
790;DHT22;378;48.844;9.156;2024-03-02T02:39:33;6.40;99.90
790;DHT22;378;48.844;9.156;2024-03-02T02:42:00;6.30;99.90
790;DHT22;378;48.844;9.156;2024-03-02T02:44:28;6.30;99.90
790;DHT22;378;48.844;9.156;2024-03-02T02:46:55;6.30;99.90
790;DHT22;378;48.844;9.156;2024-03-02T02:49:21;6.30;99.90
790;DHT22;378;48.844;9.156;2024-03-02T02:51:48;6.30;99.90
790;DHT22;378;48.844;9.156;2024-03-02T02:54:15;6.20;99.90
790;DHT22;378;48.844;9.156;2024-03-02T02:56:43;6.30;99.90
790;DHT22;378;48.844;9.156;2024-03-02T02:59:10;6.30;99.90
790;DHT22;378;48.844;9.156;2024-03-02T03:01:37;6.20;99.90
790;DHT22;378;48.844;9.156;2024-03-02T03:04:04;6.20;99.90
790;DHT22;378;48.844;9.156;2024-03-02T03:06:31;6.20;99.90
790;DHT22;378;48.844;9.156;2024-03-02T03:08:57;6.10;99.90
790;DHT22;378;48.844;9.156;2024-03-02T03:11:24;6.10;99.90
790;DHT22;378;48.844;9.156;2024-03-02T03:13:53;6.00;99.90
790;DHT22;378;48.844;9.156;2024-03-02T03:16:20;6.00;99.90
790;DHT22;378;48.844;9.156;2024-03-02T03:18:47;6.00;99.90
790;DHT22;378;48.844;9.156;2024-03-02T03:21:17;6.00;99.90
790;DHT22;378;48.844;9.156;2024-03-02T03:23:43;6.00;99.90
790;DHT22;378;48.844;9.156;2024-03-02T03:26:10;6.00;99.90
790;DHT22;378;48.844;9.156;2024-03-02T03:28:37;6.00;99.90
790;DHT22;378;48.844;9.156;2024-03-02T03:31:05;6.00;99.90
790;DHT22;378;48.844;9.156;2024-03-02T03:33:32;6.00;99.90
790;DHT22;378;48.844;9.156;2024-03-02T03:36:00;5.90;99.90
790;DHT22;378;48.844;9.156;2024-03-02T03:38:27;5.90;99.90
790;DHT22;378;48.844;9.156;2024-03-02T03:40:54;5.90;99.90
790;DHT22;378;48.844;9.156;2024-03-02T03:43:21;5.90;99.90
790;DHT22;378;48.844;9.156;2024-03-02T03:45:48;5.90;99.90
790;DHT22;378;48.844;9.156;2024-03-02T03:48:16;5.90;99.90
790;DHT22;378;48.844;9.156;2024-03-02T03:50:43;5.90;99.90
790;DHT22;378;48.844;9.156;2024-03-02T03:53:10;5.90;99.90
790;DHT22;378;48.844;9.156;2024-03-02T03:55:36;5.90;99.90
790;DHT22;378;48.844;9.156;2024-03-02T03:58:03;5.90;99.90
790;DHT22;378;48.844;9.156;2024-03-02T04:00:30;5.90;99.90
790;DHT22;378;48.844;9.156;2024-03-02T04:02:57;6.00;99.90
790;DHT22;378;48.844;9.156;2024-03-02T04:05:25;6.00;99.90
790;DHT22;378;48.844;9.156;2024-03-02T04:07:53;5.90;99.90
790;DHT22;378;48.844;9.156;2024-03-02T04:10:19;5.90;99.90
790;DHT22;378;48.844;9.156;2024-03-02T04:12:46;5.90;99.90
790;DHT22;378;48.844;9.156;2024-03-02T04:15:13;5.90;99.90
790;DHT22;378;48.844;9.156;2024-03-02T04:17:40;5.80;99.90
790;DHT22;378;48.844;9.156;2024-03-02T04:20:07;5.80;99.90
790;DHT22;378;48.844;9.156;2024-03-02T04:22:35;5.70;99.90
790;DHT22;378;48.844;9.156;2024-03-02T04:25:03;5.70;99.90
790;DHT22;378;48.844;9.156;2024-03-02T04:27:31;5.80;99.90
790;DHT22;378;48.844;9.156;2024-03-02T04:29:58;5.80;99.90
790;DHT22;378;48.844;9.156;2024-03-02T04:32:26;5.70;99.90
790;DHT22;378;48.844;9.156;2024-03-02T04:34:53;5.70;99.90
790;DHT22;378;48.844;9.156;2024-03-02T04:37:20;5.70;99.90
790;DHT22;378;48.844;9.156;2024-03-02T04:39:48;5.70;99.90
790;DHT22;378;48.844;9.156;2024-03-02T04:42:15;5.70;99.90
790;DHT22;378;48.844;9.156;2024-03-02T04:44:42;5.60;99.90
790;DHT22;378;48.844;9.156;2024-03-02T04:47:08;5.70;99.90
790;DHT22;378;48.844;9.156;2024-03-02T04:49:35;5.60;99.90
790;DHT22;378;48.844;9.156;2024-03-02T04:52:02;5.60;99.90
790;DHT22;378;48.844;9.156;2024-03-02T04:54:29;5.50;99.90
790;DHT22;378;48.844;9.156;2024-03-02T04:56:58;5.60;99.90
790;DHT22;378;48.844;9.156;2024-03-02T04:59:25;5.60;99.90
790;DHT22;378;48.844;9.156;2024-03-02T05:01:51;5.60;99.90
790;DHT22;378;48.844;9.156;2024-03-02T05:04:18;5.60;99.90
790;DHT22;378;48.844;9.156;2024-03-02T05:06:45;5.50;99.90
790;DHT22;378;48.844;9.156;2024-03-02T05:09:17;5.50;99.90
790;DHT22;378;48.844;9.156;2024-03-02T05:11:44;5.40;99.90
790;DHT22;378;48.844;9.156;2024-03-02T05:14:36;5.40;99.90
790;DHT22;378;48.844;9.156;2024-03-02T05:17:04;5.40;99.90
790;DHT22;378;48.844;9.156;2024-03-02T05:19:31;5.40;99.90
790;DHT22;378;48.844;9.156;2024-03-02T05:21:57;5.40;99.90
790;DHT22;378;48.844;9.156;2024-03-02T05:24:24;5.40;99.90
790;DHT22;378;48.844;9.156;2024-03-02T05:26:53;5.40;99.90
790;DHT22;378;48.844;9.156;2024-03-02T05:29:20;5.40;99.90
790;DHT22;378;48.844;9.156;2024-03-02T05:31:48;5.40;99.90
790;DHT22;378;48.844;9.156;2024-03-02T05:34:15;5.40;99.90
790;DHT22;378;48.844;9.156;2024-03-02T05:36:42;5.40;99.90
790;DHT22;378;48.844;9.156;2024-03-02T05:39:09;5.40;99.90
790;DHT22;378;48.844;9.156;2024-03-02T05:41:36;5.40;99.90
790;DHT22;378;48.844;9.156;2024-03-02T05:44:04;5.30;99.90
790;DHT22;378;48.844;9.156;2024-03-02T05:46:30;5.30;99.90
790;DHT22;378;48.844;9.156;2024-03-02T05:48:59;5.30;99.90
790;DHT22;378;48.844;9.156;2024-03-02T05:51:26;5.30;99.90
790;DHT22;378;48.844;9.156;2024-03-02T05:53:53;5.20;99.90
790;DHT22;378;48.844;9.156;2024-03-02T05:56:20;5.20;99.90
790;DHT22;378;48.844;9.156;2024-03-02T05:58:46;5.30;99.90
790;DHT22;378;48.844;9.156;2024-03-02T06:01:23;5.20;99.90
790;DHT22;378;48.844;9.156;2024-03-02T06:03:54;5.30;99.90
790;DHT22;378;48.844;9.156;2024-03-02T06:06:22;5.30;99.90
790;DHT22;378;48.844;9.156;2024-03-02T06:08:49;5.30;99.90
790;DHT22;378;48.844;9.156;2024-03-02T06:11:16;5.20;99.90
790;DHT22;378;48.844;9.156;2024-03-02T06:13:43;5.30;99.90
790;DHT22;378;48.844;9.156;2024-03-02T06:16:10;5.30;99.90
790;DHT22;378;48.844;9.156;2024-03-02T06:18:37;5.30;99.90
790;DHT22;378;48.844;9.156;2024-03-02T06:21:04;5.30;99.90
790;DHT22;378;48.844;9.156;2024-03-02T06:23:33;5.30;99.90
790;DHT22;378;48.844;9.156;2024-03-02T06:26:00;5.30;99.90
790;DHT22;378;48.844;9.156;2024-03-02T06:28:28;5.30;99.90
790;DHT22;378;48.844;9.156;2024-03-02T06:30:54;5.30;99.90
790;DHT22;378;48.844;9.156;2024-03-02T06:33:21;5.30;99.90
790;DHT22;378;48.844;9.156;2024-03-02T06:35:48;5.30;99.90
790;DHT22;378;48.844;9.156;2024-03-02T06:38:15;5.40;99.90
790;DHT22;378;48.844;9.156;2024-03-02T06:40:43;5.40;99.90
790;DHT22;378;48.844;9.156;2024-03-02T06:43:10;5.50;99.90
790;DHT22;378;48.844;9.156;2024-03-02T06:45:37;5.60;99.90
790;DHT22;378;48.844;9.156;2024-03-02T06:48:05;5.60;99.90
790;DHT22;378;48.844;9.156;2024-03-02T06:50:32;5.60;99.90
790;DHT22;378;48.844;9.156;2024-03-02T06:52:58;5.60;99.90
790;DHT22;378;48.844;9.156;2024-03-02T06:55:25;5.60;99.90
790;DHT22;378;48.844;9.156;2024-03-02T06:57:53;5.70;99.90
790;DHT22;378;48.844;9.156;2024-03-02T07:00:21;5.80;99.90
790;DHT22;378;48.844;9.156;2024-03-02T07:02:47;5.80;99.90
790;DHT22;378;48.844;9.156;2024-03-02T07:05:15;5.80;99.90
790;DHT22;378;48.844;9.156;2024-03-02T07:07:41;5.90;99.90
790;DHT22;378;48.844;9.156;2024-03-02T07:10:09;5.90;99.90
790;DHT22;378;48.844;9.156;2024-03-02T07:12:36;5.90;99.90
790;DHT22;378;48.844;9.156;2024-03-02T07:15:05;6.00;99.90
790;DHT22;378;48.844;9.156;2024-03-02T07:17:50;6.00;99.90
790;DHT22;378;48.844;9.156;2024-03-02T07:20:17;6.10;99.90
790;DHT22;378;48.844;9.156;2024-03-02T07:22:44;6.20;99.90
790;DHT22;378;48.844;9.156;2024-03-02T07:25:11;6.20;99.90
790;DHT22;378;48.844;9.156;2024-03-02T07:27:38;6.30;99.90
790;DHT22;378;48.844;9.156;2024-03-02T07:30:07;6.30;99.90
790;DHT22;378;48.844;9.156;2024-03-02T07:32:34;6.40;99.90
790;DHT22;378;48.844;9.156;2024-03-02T07:35:01;6.50;99.90
790;DHT22;378;48.844;9.156;2024-03-02T07:37:29;6.50;99.90
790;DHT22;378;48.844;9.156;2024-03-02T07:39:56;6.60;99.90
790;DHT22;378;48.844;9.156;2024-03-02T07:42:23;6.60;99.90
790;DHT22;378;48.844;9.156;2024-03-02T07:44:50;6.60;99.90
790;DHT22;378;48.844;9.156;2024-03-02T07:47:18;6.60;99.90
790;DHT22;378;48.844;9.156;2024-03-02T07:49:45;6.60;99.90
790;DHT22;378;48.844;9.156;2024-03-02T07:52:12;6.60;99.90
790;DHT22;378;48.844;9.156;2024-03-02T07:54:39;6.60;99.90
790;DHT22;378;48.844;9.156;2024-03-02T07:57:06;6.60;99.90
790;DHT22;378;48.844;9.156;2024-03-02T07:59:34;6.60;99.90
790;DHT22;378;48.844;9.156;2024-03-02T08:02:01;6.60;99.90
790;DHT22;378;48.844;9.156;2024-03-02T08:04:29;6.60;99.90
790;DHT22;378;48.844;9.156;2024-03-02T08:06:56;6.60;99.90
790;DHT22;378;48.844;9.156;2024-03-02T08:09:23;6.60;99.90
790;DHT22;378;48.844;9.156;2024-03-02T08:11:49;6.70;99.90
790;DHT22;378;48.844;9.156;2024-03-02T08:14:16;6.60;99.90
790;DHT22;378;48.844;9.156;2024-03-02T08:16:43;6.70;99.90
790;DHT22;378;48.844;9.156;2024-03-02T08:19:10;6.70;99.90
790;DHT22;378;48.844;9.156;2024-03-02T08:21:39;6.70;99.90
790;DHT22;378;48.844;9.156;2024-03-02T08:24:06;6.70;99.90
790;DHT22;378;48.844;9.156;2024-03-02T08:26:33;6.70;99.90
790;DHT22;378;48.844;9.156;2024-03-02T08:29:00;6.70;99.90
790;DHT22;378;48.844;9.156;2024-03-02T08:31:29;6.80;99.90
790;DHT22;378;48.844;9.156;2024-03-02T08:33:55;6.80;99.90
790;DHT22;378;48.844;9.156;2024-03-02T08:36:24;6.80;99.90
790;DHT22;378;48.844;9.156;2024-03-02T08:38:52;6.80;99.90
790;DHT22;378;48.844;9.156;2024-03-02T08:41:19;6.80;99.90
790;DHT22;378;48.844;9.156;2024-03-02T08:43:46;6.80;99.90
790;DHT22;378;48.844;9.156;2024-03-02T08:46:13;6.90;99.90
790;DHT22;378;48.844;9.156;2024-03-02T08:48:40;7.00;99.90
790;DHT22;378;48.844;9.156;2024-03-02T08:51:07;7.10;99.90
790;DHT22;378;48.844;9.156;2024-03-02T08:53:35;7.20;99.90
790;DHT22;378;48.844;9.156;2024-03-02T08:56:05;7.30;99.90
790;DHT22;378;48.844;9.156;2024-03-02T08:58:32;7.40;99.90
790;DHT22;378;48.844;9.156;2024-03-02T09:00:59;7.40;99.90
790;DHT22;378;48.844;9.156;2024-03-02T09:03:26;7.50;99.90
790;DHT22;378;48.844;9.156;2024-03-02T09:05:52;7.60;99.90
790;DHT22;378;48.844;9.156;2024-03-02T09:08:19;7.70;99.90
790;DHT22;378;48.844;9.156;2024-03-02T09:10:46;7.70;99.90
790;DHT22;378;48.844;9.156;2024-03-02T09:13:14;7.80;99.90
790;DHT22;378;48.844;9.156;2024-03-02T09:15:42;7.90;99.90
790;DHT22;378;48.844;9.156;2024-03-02T09:18:09;7.90;99.90
790;DHT22;378;48.844;9.156;2024-03-02T09:20:36;8.00;99.90
790;DHT22;378;48.844;9.156;2024-03-02T09:23:03;8.10;99.90
790;DHT22;378;48.844;9.156;2024-03-02T09:25:30;8.10;99.90
790;DHT22;378;48.844;9.156;2024-03-02T09:27:57;8.20;99.90
790;DHT22;378;48.844;9.156;2024-03-02T09:30:25;8.20;99.90
790;DHT22;378;48.844;9.156;2024-03-02T09:32:52;8.30;99.90
790;DHT22;378;48.844;9.156;2024-03-02T09:35:19;8.40;99.90
790;DHT22;378;48.844;9.156;2024-03-02T09:37:46;8.50;99.90
790;DHT22;378;48.844;9.156;2024-03-02T09:40:13;8.60;99.90
790;DHT22;378;48.844;9.156;2024-03-02T09:42:42;8.80;99.90
790;DHT22;378;48.844;9.156;2024-03-02T09:45:09;9.00;99.90
790;DHT22;378;48.844;9.156;2024-03-02T09:47:38;9.10;99.90
790;DHT22;378;48.844;9.156;2024-03-02T09:50:06;9.10;99.90
790;DHT22;378;48.844;9.156;2024-03-02T09:52:33;9.10;99.90
790;DHT22;378;48.844;9.156;2024-03-02T09:55:00;9.10;99.90
790;DHT22;378;48.844;9.156;2024-03-02T09:57:27;9.20;99.90
790;DHT22;378;48.844;9.156;2024-03-02T09:59:54;9.20;99.90
790;DHT22;378;48.844;9.156;2024-03-02T10:02:21;9.30;99.90
790;DHT22;378;48.844;9.156;2024-03-02T10:04:50;9.30;99.90
790;DHT22;378;48.844;9.156;2024-03-02T10:07:18;9.30;99.90
790;DHT22;378;48.844;9.156;2024-03-02T10:09:46;9.30;99.90
790;DHT22;378;48.844;9.156;2024-03-02T10:12:14;9.40;99.90
790;DHT22;378;48.844;9.156;2024-03-02T10:14:41;9.50;99.90
790;DHT22;378;48.844;9.156;2024-03-02T10:17:09;9.50;99.90
790;DHT22;378;48.844;9.156;2024-03-02T10:19:36;9.50;99.90
790;DHT22;378;48.844;9.156;2024-03-02T10:22:07;9.60;99.90
790;DHT22;378;48.844;9.156;2024-03-02T10:24:38;9.70;99.90
790;DHT22;378;48.844;9.156;2024-03-02T10:27:09;9.70;99.90
790;DHT22;378;48.844;9.156;2024-03-02T10:29:40;9.80;99.90
790;DHT22;378;48.844;9.156;2024-03-02T10:32:09;9.90;99.90
790;DHT22;378;48.844;9.156;2024-03-02T10:34:36;9.90;99.90
790;DHT22;378;48.844;9.156;2024-03-02T10:37:05;10.00;99.90
790;DHT22;378;48.844;9.156;2024-03-02T10:39:34;10.10;99.90
790;DHT22;378;48.844;9.156;2024-03-02T10:42:02;10.10;99.90
790;DHT22;378;48.844;9.156;2024-03-02T10:44:30;10.20;99.90
790;DHT22;378;48.844;9.156;2024-03-02T10:47:00;10.20;99.90
790;DHT22;378;48.844;9.156;2024-03-02T10:49:29;10.30;99.90
790;DHT22;378;48.844;9.156;2024-03-02T10:51:56;10.40;99.90
790;DHT22;378;48.844;9.156;2024-03-02T10:54:25;10.50;99.90
790;DHT22;378;48.844;9.156;2024-03-02T10:56:56;10.50;99.90
790;DHT22;378;48.844;9.156;2024-03-02T10:59:27;10.60;99.90
790;DHT22;378;48.844;9.156;2024-03-02T11:01:56;10.60;99.90
790;DHT22;378;48.844;9.156;2024-03-02T11:04:25;10.70;99.90
790;DHT22;378;48.844;9.156;2024-03-02T11:06:56;10.70;99.90
790;DHT22;378;48.844;9.156;2024-03-02T11:09:28;10.80;99.90
790;DHT22;378;48.844;9.156;2024-03-02T11:12:02;10.90;99.90
790;DHT22;378;48.844;9.156;2024-03-02T11:14:31;10.90;99.90
790;DHT22;378;48.844;9.156;2024-03-02T11:17:00;10.90;99.90
790;DHT22;378;48.844;9.156;2024-03-02T11:19:29;10.90;99.90
790;DHT22;378;48.844;9.156;2024-03-02T11:21:57;11.10;99.90
790;DHT22;378;48.844;9.156;2024-03-02T11:24:35;11.10;99.90
790;DHT22;378;48.844;9.156;2024-03-02T11:27:03;11.20;99.90
790;DHT22;378;48.844;9.156;2024-03-02T11:29:46;11.30;99.90
790;DHT22;378;48.844;9.156;2024-03-02T11:32:14;11.30;99.90
790;DHT22;378;48.844;9.156;2024-03-02T11:34:42;11.40;99.90
790;DHT22;378;48.844;9.156;2024-03-02T11:37:12;11.40;99.90
790;DHT22;378;48.844;9.156;2024-03-02T11:39:41;11.50;99.90
790;DHT22;378;48.844;9.156;2024-03-02T11:42:08;11.60;99.90
790;DHT22;378;48.844;9.156;2024-03-02T11:44:36;11.60;99.90
790;DHT22;378;48.844;9.156;2024-03-02T11:47:06;11.70;99.90
790;DHT22;378;48.844;9.156;2024-03-02T11:49:39;11.70;99.90
790;DHT22;378;48.844;9.156;2024-03-02T11:52:08;11.80;99.90
790;DHT22;378;48.844;9.156;2024-03-02T11:54:37;11.90;99.90
790;DHT22;378;48.844;9.156;2024-03-02T11:57:07;11.90;99.90
790;DHT22;378;48.844;9.156;2024-03-02T11:59:34;12.00;99.90
790;DHT22;378;48.844;9.156;2024-03-02T12:02:01;12.00;99.90
790;DHT22;378;48.844;9.156;2024-03-02T12:04:29;12.10;99.90
790;DHT22;378;48.844;9.156;2024-03-02T12:06:57;12.20;99.90
790;DHT22;378;48.844;9.156;2024-03-02T12:09:26;12.20;99.90
790;DHT22;378;48.844;9.156;2024-03-02T12:12:04;12.30;99.90
790;DHT22;378;48.844;9.156;2024-03-02T12:14:33;12.40;99.90
790;DHT22;378;48.844;9.156;2024-03-02T12:17:00;12.40;99.90
790;DHT22;378;48.844;9.156;2024-03-02T12:19:27;12.50;99.90
790;DHT22;378;48.844;9.156;2024-03-02T12:21:56;12.50;99.90
790;DHT22;378;48.844;9.156;2024-03-02T12:24:24;12.70;99.90
790;DHT22;378;48.844;9.156;2024-03-02T12:26:51;12.70;99.90
790;DHT22;378;48.844;9.156;2024-03-02T12:29:19;12.80;99.90
790;DHT22;378;48.844;9.156;2024-03-02T12:31:48;12.80;99.90
790;DHT22;378;48.844;9.156;2024-03-02T12:34:16;12.80;99.90
790;DHT22;378;48.844;9.156;2024-03-02T12:36:44;12.90;99.90
790;DHT22;378;48.844;9.156;2024-03-02T12:39:13;13.00;99.90
790;DHT22;378;48.844;9.156;2024-03-02T12:41:40;13.10;99.90
790;DHT22;378;48.844;9.156;2024-03-02T12:44:06;13.10;99.90
790;DHT22;378;48.844;9.156;2024-03-02T12:46:34;13.20;99.90
790;DHT22;378;48.844;9.156;2024-03-02T12:49:08;13.20;99.90
790;DHT22;378;48.844;9.156;2024-03-02T12:51:36;13.20;99.90
790;DHT22;378;48.844;9.156;2024-03-02T12:54:03;13.20;99.90
790;DHT22;378;48.844;9.156;2024-03-02T12:56:31;13.20;99.90
790;DHT22;378;48.844;9.156;2024-03-02T12:58:59;13.20;99.90
790;DHT22;378;48.844;9.156;2024-03-02T13:01:26;13.30;99.90
790;DHT22;378;48.844;9.156;2024-03-02T13:03:53;13.30;99.90
790;DHT22;378;48.844;9.156;2024-03-02T13:06:23;13.30;99.90
790;DHT22;378;48.844;9.156;2024-03-02T13:08:53;13.40;99.90
790;DHT22;378;48.844;9.156;2024-03-02T13:11:21;13.40;99.90
790;DHT22;378;48.844;9.156;2024-03-02T13:13:48;13.40;99.90
790;DHT22;378;48.844;9.156;2024-03-02T13:16:16;13.50;99.90
790;DHT22;378;48.844;9.156;2024-03-02T13:18:45;13.60;99.90
790;DHT22;378;48.844;9.156;2024-03-02T13:21:11;13.60;99.90
790;DHT22;378;48.844;9.156;2024-03-02T13:23:40;13.70;99.90
790;DHT22;378;48.844;9.156;2024-03-02T13:26:07;13.70;99.90
790;DHT22;378;48.844;9.156;2024-03-02T13:28:36;13.80;99.90
790;DHT22;378;48.844;9.156;2024-03-02T13:31:03;13.90;99.90
790;DHT22;378;48.844;9.156;2024-03-02T13:33:57;13.80;99.90
790;DHT22;378;48.844;9.156;2024-03-02T13:39:48;14.00;99.90
790;DHT22;378;48.844;9.156;2024-03-02T13:42:33;14.10;99.90
790;DHT22;378;48.844;9.156;2024-03-02T13:45:18;14.10;99.90
790;DHT22;378;48.844;9.156;2024-03-02T13:57:03;14.40;99.90
790;DHT22;378;48.844;9.156;2024-03-02T14:00:05;14.40;99.90
790;DHT22;378;48.844;9.156;2024-03-02T14:02:56;14.50;99.90
790;DHT22;378;48.844;9.156;2024-03-02T14:05:55;14.50;99.90
790;DHT22;378;48.844;9.156;2024-03-02T14:08:39;14.50;99.90
790;DHT22;378;48.844;9.156;2024-03-02T14:11:14;14.50;99.90
790;DHT22;378;48.844;9.156;2024-03-02T14:13:52;14.50;99.90
790;DHT22;378;48.844;9.156;2024-03-02T14:16:20;14.50;99.90
790;DHT22;378;48.844;9.156;2024-03-02T14:18:47;14.50;99.90
790;DHT22;378;48.844;9.156;2024-03-02T14:21:14;14.60;99.90
790;DHT22;378;48.844;9.156;2024-03-02T14:23:41;14.60;99.90
790;DHT22;378;48.844;9.156;2024-03-02T14:26:08;14.60;99.90
790;DHT22;378;48.844;9.156;2024-03-02T14:28:35;14.60;99.90
790;DHT22;378;48.844;9.156;2024-03-02T14:31:03;14.60;99.90
790;DHT22;378;48.844;9.156;2024-03-02T14:33:31;14.60;99.90
790;DHT22;378;48.844;9.156;2024-03-02T14:35:58;14.50;99.90
790;DHT22;378;48.844;9.156;2024-03-02T14:38:25;14.60;99.90
790;DHT22;378;48.844;9.156;2024-03-02T14:40:52;14.60;99.90
790;DHT22;378;48.844;9.156;2024-03-02T14:43:19;14.60;99.90
790;DHT22;378;48.844;9.156;2024-03-02T14:45:46;14.60;99.90
790;DHT22;378;48.844;9.156;2024-03-02T14:48:14;14.70;99.90
790;DHT22;378;48.844;9.156;2024-03-02T14:50:42;14.70;99.90
790;DHT22;378;48.844;9.156;2024-03-02T14:53:09;14.80;99.90
790;DHT22;378;48.844;9.156;2024-03-02T14:55:35;14.80;99.90
790;DHT22;378;48.844;9.156;2024-03-02T14:58:02;14.80;99.90
790;DHT22;378;48.844;9.156;2024-03-02T15:00:29;14.70;99.90
790;DHT22;378;48.844;9.156;2024-03-02T15:02:56;14.80;99.90
790;DHT22;378;48.844;9.156;2024-03-02T15:05:25;14.80;99.90
790;DHT22;378;48.844;9.156;2024-03-02T15:07:52;14.80;99.90
790;DHT22;378;48.844;9.156;2024-03-02T15:10:19;14.80;99.90
790;DHT22;378;48.844;9.156;2024-03-02T15:12:46;14.90;99.90
790;DHT22;378;48.844;9.156;2024-03-02T15:15:13;14.90;99.90
790;DHT22;378;48.844;9.156;2024-03-02T15:17:40;14.90;99.90
790;DHT22;378;48.844;9.156;2024-03-02T15:20:08;14.80;99.90
790;DHT22;378;48.844;9.156;2024-03-02T15:22:36;14.80;99.90
790;DHT22;378;48.844;9.156;2024-03-02T15:25:04;14.70;99.90
790;DHT22;378;48.844;9.156;2024-03-02T15:27:30;14.60;99.90
790;DHT22;378;48.844;9.156;2024-03-02T15:29:57;14.50;99.90
790;DHT22;378;48.844;9.156;2024-03-02T15:32:24;14.30;99.90
790;DHT22;378;48.844;9.156;2024-03-02T15:34:52;14.20;99.90
790;DHT22;378;48.844;9.156;2024-03-02T15:37:19;14.20;99.90
790;DHT22;378;48.844;9.156;2024-03-02T15:39:47;14.10;99.90
790;DHT22;378;48.844;9.156;2024-03-02T15:42:14;14.00;99.90
790;DHT22;378;48.844;9.156;2024-03-02T15:44:41;13.90;99.90
790;DHT22;378;48.844;9.156;2024-03-02T15:47:08;13.80;99.90
790;DHT22;378;48.844;9.156;2024-03-02T15:49:35;13.70;99.90
790;DHT22;378;48.844;9.156;2024-03-02T15:52:02;13.70;99.90
790;DHT22;378;48.844;9.156;2024-03-02T15:54:29;13.60;99.90
790;DHT22;378;48.844;9.156;2024-03-02T15:56:57;13.60;99.90
790;DHT22;378;48.844;9.156;2024-03-02T15:59:24;13.60;99.90
790;DHT22;378;48.844;9.156;2024-03-02T16:01:51;13.60;99.90
790;DHT22;378;48.844;9.156;2024-03-02T16:04:18;13.60;99.90
790;DHT22;378;48.844;9.156;2024-03-02T16:06:45;13.50;99.90
790;DHT22;378;48.844;9.156;2024-03-02T16:09:12;13.40;99.90
790;DHT22;378;48.844;9.156;2024-03-02T16:11:39;13.40;99.90
790;DHT22;378;48.844;9.156;2024-03-02T16:14:07;13.30;99.90
790;DHT22;378;48.844;9.156;2024-03-02T16:16:34;13.30;99.90
790;DHT22;378;48.844;9.156;2024-03-02T16:19:01;13.30;99.90
790;DHT22;378;48.844;9.156;2024-03-02T16:21:28;13.30;99.90
790;DHT22;378;48.844;9.156;2024-03-02T16:23:55;13.30;99.90
790;DHT22;378;48.844;9.156;2024-03-02T16:26:23;13.20;99.90
790;DHT22;378;48.844;9.156;2024-03-02T16:28:50;13.20;99.90
790;DHT22;378;48.844;9.156;2024-03-02T16:31:18;13.10;99.90
790;DHT22;378;48.844;9.156;2024-03-02T16:33:45;13.10;99.90
790;DHT22;378;48.844;9.156;2024-03-02T16:36:12;13.00;99.90
790;DHT22;378;48.844;9.156;2024-03-02T16:38:39;12.90;99.90
790;DHT22;378;48.844;9.156;2024-03-02T16:41:09;12.90;99.90
790;DHT22;378;48.844;9.156;2024-03-02T16:43:36;12.90;99.90
790;DHT22;378;48.844;9.156;2024-03-02T16:46:03;12.80;99.90
790;DHT22;378;48.844;9.156;2024-03-02T16:48:32;12.70;99.90
790;DHT22;378;48.844;9.156;2024-03-02T16:50:59;12.70;99.90
790;DHT22;378;48.844;9.156;2024-03-02T16:53:26;12.70;99.90
790;DHT22;378;48.844;9.156;2024-03-02T16:55:53;12.60;99.90
790;DHT22;378;48.844;9.156;2024-03-02T16:58:20;12.60;99.90
790;DHT22;378;48.844;9.156;2024-03-02T17:00:47;12.50;99.90
790;DHT22;378;48.844;9.156;2024-03-02T17:03:14;12.50;99.90